Terminal Aerodrome Forecast
Issued by NWS Pocatello, ID

Home | Current Version | Previous Version | Text Only | Print | Product List | Glossary On
Versions: 1 2 3 4 5 6 7 8 9 10 11 12 13
000
FTUS45 KPIH 301720
TAFBYI
TAF
KBYI 301720Z 3018/0118 VRB06KT P6SM OVC200
     FM302000 27011KT P6SM VCTS SCT100CB BKN250
     FM010300 24008KT P6SM SCT250
     FM011700 27010G16KT P6SM SKC=

USA.gov is the U.S. government's official web portal to all federal, state and local government web resources and services.